createdAt,value
2022-12-09T00:01:42.197Z,100228.34
2022-12-09T00:04:29.983Z,100225.72
2022-12-09T00:07:17.974Z,100258.63
2022-12-09T00:10:06.914Z,100256.34
2022-12-09T00:12:56.431Z,100251.03
2022-12-09T00:15:44.723Z,100268.25
2022-12-09T00:18:45.362Z,100269.03
2022-12-09T00:21:34.305Z,100236.00
2022-12-09T00:24:21.959Z,100259.19
2022-12-09T00:27:09.782Z,100267.72
2022-12-09T00:29:57.504Z,100249.50
2022-12-09T00:32:45.449Z,100254.34
2022-12-09T00:35:33.914Z,100248.22
2022-12-09T00:38:21.615Z,100249.81
2022-12-09T00:41:10.064Z,100279.84
2022-12-09T00:43:58.895Z,100277.47
2022-12-09T00:46:46.825Z,100280.53
2022-12-09T00:49:48.356Z,100283.22
2022-12-09T00:52:36.410Z,100266.97
2022-12-09T00:55:26.122Z,100252.59
2022-12-09T00:58:14.959Z,100264.31
2022-12-09T01:01:02.734Z,100284.69
2022-12-09T01:03:51.649Z,100285.97
2022-12-09T01:06:39.702Z,100287.59
2022-12-09T01:09:27.419Z,100269.88
2022-12-09T01:12:15.119Z,100273.72
2022-12-09T01:15:03.729Z,100232.19
2022-12-09T01:17:51.407Z,100233.56
2022-12-09T01:20:39.426Z,100262.28
2022-12-09T01:23:27.293Z,100273.88
2022-12-09T01:26:15.452Z,100253.75
2022-12-09T01:29:03.600Z,100250.88
2022-12-09T01:31:51.641Z,100247.94
2022-12-09T01:34:39.573Z,100277.78
2022-12-09T01:37:27.623Z,100264.53
2022-12-09T01:40:18.405Z,100263.41
2022-12-09T01:43:19.811Z,100238.41
2022-12-09T01:46:10.112Z,100263.94
2022-12-09T01:48:58.572Z,100238.84
2022-12-09T01:51:53.302Z,100268.31
2022-12-09T01:54:43.335Z,100228.53
2022-12-09T01:57:31.771Z,100274.34
2022-12-09T02:00:21.034Z,100257.66
2022-12-09T02:03:11.844Z,100255.19
2022-12-09T02:06:02.034Z,100253.59
2022-12-09T02:08:51.077Z,100256.31
2022-12-09T02:12:02.226Z,100268.09
2022-12-09T02:15:06.055Z,100256.81
2022-12-09T02:18:00.310Z,100253.75
2022-12-09T02:21:01.466Z,100269.53
2022-12-09T02:23:59.376Z,100269.69
2022-12-09T02:26:54.030Z,100264.53
2022-12-09T02:30:06.752Z,100235.53
2022-12-09T02:33:32.798Z,100249.75
2022-12-09T02:36:25.991Z,100249.44
2022-12-09T02:39:14.009Z,100250.75
2022-12-09T02:42:08.956Z,100243.28
2022-12-09T02:44:59.500Z,100214.38
2022-12-09T02:47:51.222Z,100244.25
2022-12-09T02:50:42.980Z,100234.59
2022-12-09T02:53:32.230Z,100242.03
2022-12-09T02:56:21.800Z,100260.84
2022-12-09T02:59:10.165Z,100250.38
2022-12-09T03:02:22.724Z,100244.25
2022-12-09T03:05:40.070Z,100249.72
2022-12-09T03:08:53.213Z,100222.97
2022-12-09T03:11:42.015Z,100203.13
2022-12-09T03:14:36.146Z,100215.22
2022-12-09T03:17:35.831Z,100211.53
2022-12-09T03:20:29.147Z,100225.59
2022-12-09T03:23:20.144Z,100217.06
2022-12-09T03:26:08.382Z,100205.59
2022-12-09T03:28:59.165Z,100222.19
2022-12-09T03:31:48.064Z,100228.47
2022-12-09T03:34:40.214Z,100230.56
2022-12-09T03:37:28.705Z,100232.16
2022-12-09T03:40:20.135Z,100225.19
2022-12-09T03:43:12.807Z,100233.91
2022-12-09T03:46:01.003Z,100241.50
2022-12-09T03:48:49.547Z,100232.44
2022-12-09T03:51:45.393Z,100243.72
2022-12-09T03:54:44.669Z,100212.63
2022-12-09T03:57:35.888Z,100231.09
2022-12-09T04:00:23.959Z,100128.09
2022-12-09T04:03:13.933Z,100202.31
2022-12-09T04:06:01.795Z,100196.00
2022-12-09T04:08:50.275Z,100226.97
2022-12-09T04:11:38.093Z,100241.16
2022-12-09T04:14:26.161Z,100246.97
2022-12-09T04:17:14.083Z,100244.84
2022-12-09T04:20:01.830Z,100236.94
2022-12-09T04:22:49.465Z,100238.69
2022-12-09T04:25:38.314Z,100258.06
2022-12-09T04:28:26.143Z,100244.53
2022-12-09T04:31:18.157Z,100238.22
2022-12-09T04:34:09.605Z,100226.13
2022-12-09T04:36:58.000Z,100234.72
2022-12-09T04:39:45.752Z,100230.38
2022-12-09T04:42:34.085Z,100218.63
2022-12-09T04:45:22.856Z,100224.88
2022-12-09T04:48:11.674Z,100219.44
2022-12-09T04:51:00.021Z,100214.06
2022-12-09T04:53:47.689Z,100222.44
2022-12-09T04:56:35.415Z,100213.56
2022-12-09T04:59:23.119Z,100220.81
2022-12-09T05:02:11.194Z,100198.06
2022-12-09T05:05:01.875Z,100238.84
2022-12-09T05:07:50.111Z,100236.00
2022-12-09T05:10:38.283Z,100242.88
2022-12-09T05:13:30.450Z,100243.69
2022-12-09T05:16:20.157Z,100244.34
2022-12-09T05:19:08.663Z,100238.69
2022-12-09T05:21:57.449Z,100218.81
2022-12-09T05:24:47.527Z,100237.66
2022-12-09T05:27:35.638Z,100226.69
2022-12-09T05:30:23.466Z,100210.91
2022-12-09T05:33:11.648Z,100249.28
2022-12-09T05:35:59.576Z,100255.72
2022-12-09T05:38:47.604Z,100242.69
2022-12-09T05:41:36.033Z,100231.25
2022-12-09T05:44:23.833Z,100236.72
2022-12-09T05:47:12.120Z,100226.84
2022-12-09T05:50:05.893Z,100185.84
2022-12-09T05:52:55.639Z,100213.63
2022-12-09T05:55:43.662Z,100236.22
2022-12-09T05:58:31.976Z,100253.59
2022-12-09T06:01:20.357Z,100228.59
2022-12-09T06:04:09.170Z,100247.59
2022-12-09T06:06:57.229Z,100258.53
2022-12-09T06:09:45.885Z,100236.59
2022-12-09T06:12:34.085Z,100242.00
2022-12-09T06:15:24.795Z,100251.19
2022-12-09T06:18:16.031Z,100214.28
2022-12-09T06:21:08.673Z,100243.78
2022-12-09T06:23:56.755Z,100224.09
2022-12-09T06:26:44.905Z,100232.34
2022-12-09T06:29:32.717Z,100201.22
2022-12-09T06:32:20.477Z,100252.78
2022-12-09T06:35:09.758Z,100270.22
2022-12-09T06:37:58.144Z,100261.97
2022-12-09T06:40:45.945Z,100256.28
2022-12-09T06:43:33.989Z,100254.88
2022-12-09T06:46:23.833Z,100257.63
2022-12-09T06:49:11.867Z,100244.53
2022-12-09T06:51:59.972Z,100254.28
2022-12-09T06:54:48.115Z,100250.41
2022-12-09T06:57:35.865Z,100232.34
2022-12-09T07:00:24.486Z,100264.44
2022-12-09T07:03:13.719Z,100278.44
2022-12-09T07:06:03.574Z,100275.28
2022-12-09T07:08:51.800Z,100273.00
2022-12-09T07:11:42.750Z,100262.31
2022-12-09T07:14:31.344Z,100232.78
2022-12-09T07:17:20.855Z,100265.56
2022-12-09T07:20:09.399Z,100234.97
2022-12-09T07:22:57.501Z,100174.94
2022-12-09T07:25:45.390Z,100258.56
2022-12-09T07:28:37.128Z,100254.69
2022-12-09T07:31:27.584Z,100247.25
2022-12-09T07:34:16.013Z,100256.50
2022-12-09T07:37:04.065Z,100235.22
2022-12-09T07:39:52.027Z,100251.66
2022-12-09T07:42:39.790Z,100266.13
2022-12-09T07:45:30.092Z,100264.50
2022-12-09T07:48:18.000Z,100276.59
2022-12-09T07:51:06.159Z,100250.50
2022-12-09T07:53:54.142Z,100283.22
2022-12-09T07:56:43.571Z,100282.25
2022-12-09T07:59:31.328Z,100254.63
2022-12-09T08:02:20.208Z,100285.16
2022-12-09T08:05:13.380Z,100255.50
2022-12-09T08:08:06.451Z,100236.31
2022-12-09T08:11:07.522Z,100257.47
2022-12-09T08:14:05.672Z,100253.09
2022-12-09T08:16:57.165Z,100268.13
2022-12-09T08:19:45.122Z,100243.44
2022-12-09T08:22:34.987Z,100252.16
2022-12-09T08:25:24.414Z,100244.25
2022-12-09T08:28:12.364Z,100252.66
2022-12-09T08:31:16.915Z,100257.84
2022-12-09T08:34:05.717Z,100245.59
2022-12-09T08:37:00.260Z,100245.09
2022-12-09T08:39:49.649Z,100246.41
2022-12-09T08:42:38.582Z,100251.59
2022-12-09T08:45:26.828Z,100240.78
2022-12-09T08:48:15.063Z,100259.63
2022-12-09T08:51:03.181Z,100224.47
2022-12-09T08:53:51.181Z,100218.03
2022-12-09T08:56:38.855Z,100222.41
2022-12-09T08:59:26.980Z,100219.50
2022-12-09T09:02:14.692Z,100186.63
2022-12-09T09:05:02.927Z,100210.47
2022-12-09T09:07:51.311Z,100211.09
2022-12-09T09:10:39.820Z,100167.91
2022-12-09T09:13:27.899Z,100194.34
2022-12-09T09:16:21.766Z,100163.25
2022-12-09T09:19:17.467Z,100184.69
2022-12-09T09:22:05.524Z,100199.00
2022-12-09T09:24:54.382Z,100196.38
2022-12-09T09:27:42.119Z,100189.13
2022-12-09T09:30:29.904Z,100172.38
2022-12-09T09:33:17.977Z,100160.56
2022-12-09T09:36:10.662Z,100151.69
2022-12-09T09:39:00.243Z,100168.28
2022-12-09T09:42:08.922Z,100162.63
2022-12-09T09:44:58.291Z,100150.56
2022-12-09T09:47:51.982Z,100118.16
2022-12-09T09:51:29.272Z,100140.38
2022-12-09T09:54:17.414Z,100122.50
2022-12-09T09:57:30.030Z,100136.53
2022-12-09T10:00:24.644Z,100131.38
2022-12-09T10:03:25.375Z,100137.91
2022-12-09T10:06:33.454Z,100137.78
2022-12-09T10:09:40.559Z,100132.63
2022-12-09T10:12:49.686Z,100134.78
2022-12-09T10:15:55.181Z,100137.50
2022-12-09T10:18:51.673Z,100133.47
2022-12-09T10:21:44.431Z,100097.09
2022-12-09T10:24:39.261Z,100111.28
2022-12-09T10:27:31.385Z,100104.63
2022-12-09T10:30:20.750Z,100102.78
2022-12-09T10:33:16.694Z,100114.00
2022-12-09T10:36:06.349Z,100096.19
2022-12-09T10:38:54.131Z,100091.38
2022-12-09T10:42:06.553Z,100078.19
2022-12-09T10:45:07.893Z,100087.72
2022-12-09T10:47:56.048Z,100032.34
2022-12-09T10:50:48.418Z,100090.22
2022-12-09T10:53:37.016Z,100084.09
2022-12-09T10:56:36.739Z,100070.56
2022-12-09T10:59:27.255Z,100052.03
2022-12-09T11:02:21.137Z,100071.69
2022-12-09T11:05:30.182Z,99999.31
2022-12-09T11:08:23.216Z,100074.66
2022-12-09T11:11:11.195Z,100065.63
2022-12-09T11:14:01.604Z,100053.84
2022-12-09T11:16:52.042Z,100037.31
2022-12-09T11:19:40.854Z,100050.00
2022-12-09T11:22:42.414Z,100045.44
2022-12-09T11:25:36.884Z,100041.13
2022-12-09T11:28:31.038Z,100025.22
2022-12-09T11:31:31.890Z,100021.44
2022-12-09T11:34:25.054Z,100028.06
2022-12-09T11:37:13.005Z,100021.28
2022-12-09T11:40:00.676Z,100007.56
2022-12-09T11:42:54.068Z,100026.19
2022-12-09T11:45:46.306Z,100028.41
2022-12-09T11:48:41.702Z,100018.09
2022-12-09T11:51:38.159Z,100000.97
2022-12-09T11:54:32.301Z,99972.47
2022-12-09T11:57:35.773Z,100015.56
2022-12-09T12:00:34.100Z,100004.19
2022-12-09T12:03:24.845Z,100006.56
2022-12-09T12:06:24.327Z,99916.97
2022-12-09T12:09:17.648Z,100019.50
2022-12-09T12:12:10.204Z,99988.56
2022-12-09T12:15:02.302Z,99991.47
2022-12-09T12:17:55.026Z,99969.44
2022-12-09T12:20:54.722Z,99972.13
2022-12-09T12:24:00.692Z,99999.25
2022-12-09T12:26:51.165Z,100016.72
2022-12-09T12:29:59.426Z,100014.91
2022-12-09T12:36:33.395Z,100011.66
2022-12-09T12:39:53.059Z,100005.09
2022-12-09T12:43:36.041Z,100012.06
2022-12-09T12:46:57.017Z,100012.88
2022-12-09T12:49:58.613Z,100005.72
2022-12-09T12:52:56.353Z,100007.66
2022-12-09T12:56:02.446Z,99983.38
2022-12-09T12:59:26.906Z,99988.25
2022-12-09T13:02:36.760Z,99981.94
2022-12-09T13:05:28.016Z,99986.63
2022-12-09T13:08:30.655Z,99979.88
2022-12-09T13:11:23.915Z,99979.88
2022-12-09T13:14:17.781Z,99988.19
2022-12-09T13:17:13.118Z,99994.56
2022-12-09T13:20:03.109Z,99980.28
2022-12-09T13:23:00.679Z,99981.56
2022-12-09T13:26:06.619Z,100000.50
2022-12-09T13:29:05.963Z,99970.50
2022-12-09T13:32:05.509Z,99989.88
2022-12-09T13:35:01.146Z,100000.97
2022-12-09T13:37:50.366Z,100007.06
2022-12-09T13:40:39.269Z,99989.31
2022-12-09T13:43:29.505Z,99989.94
2022-12-09T13:46:25.473Z,99982.63
2022-12-09T13:49:24.893Z,99965.03
2022-12-09T13:52:12.482Z,99989.78
2022-12-09T13:55:00.186Z,99966.84
2022-12-09T13:57:58.747Z,99976.34
2022-12-09T14:01:07.705Z,99940.78
2022-12-09T14:04:16.471Z,99976.75
2022-12-09T14:07:36.644Z,99979.09
2022-12-09T14:10:39.432Z,99970.06
2022-12-09T14:13:37.427Z,99940.72
2022-12-09T14:16:28.140Z,99971.44
2022-12-09T14:19:24.852Z,99960.81
2022-12-09T14:22:19.426Z,99937.72
2022-12-09T14:25:29.543Z,99966.28
2022-12-09T14:28:41.875Z,99947.31
2022-12-09T14:31:50.676Z,99952.44
2022-12-09T14:34:43.292Z,99950.91
2022-12-09T14:37:58.267Z,99921.50
2022-12-09T14:41:12.881Z,99932.69
2022-12-09T14:44:09.431Z,99928.84
2022-12-09T14:47:31.308Z,99939.31
2022-12-09T14:50:25.159Z,99949.03
2022-12-09T14:53:25.219Z,99952.22
2022-12-09T14:56:21.308Z,99918.56
2022-12-09T14:59:16.673Z,99936.38
2022-12-09T15:02:20.939Z,99927.88
2022-12-09T15:05:17.089Z,99939.31
2022-12-09T15:08:05.647Z,99923.72
2022-12-09T15:10:53.434Z,99906.63
2022-12-09T15:13:52.959Z,99919.03
2022-12-09T15:16:46.401Z,99910.16
2022-12-09T15:19:59.741Z,99878.59
2022-12-09T15:22:52.834Z,99911.28
2022-12-09T15:25:50.929Z,99906.47
2022-12-09T15:28:38.601Z,99890.53
2022-12-09T15:31:29.114Z,99882.56
2022-12-09T15:34:26.124Z,99881.31
2022-12-09T15:37:18.882Z,99909.69
2022-12-09T15:40:13.025Z,99891.47
2022-12-09T15:43:13.325Z,99897.81
2022-12-09T15:46:07.690Z,99892.84
2022-12-09T15:48:58.276Z,99889.94
2022-12-09T15:51:48.189Z,99881.25
2022-12-09T15:54:40.370Z,99869.00
2022-12-09T15:57:28.533Z,99872.41
2022-12-09T16:00:16.534Z,99871.16
2022-12-09T16:03:05.780Z,99867.13
2022-12-09T16:05:56.885Z,99868.44
2022-12-09T16:08:45.283Z,99847.63
2022-12-09T16:11:43.978Z,99836.28
2022-12-09T16:14:43.377Z,99842.84
2022-12-09T16:17:35.398Z,99846.81
2022-12-09T16:20:33.128Z,99835.41
2022-12-09T16:23:24.248Z,99836.34
2022-12-09T16:26:21.479Z,99815.66
2022-12-09T16:29:23.704Z,99839.88
2022-12-09T16:32:22.815Z,99841.69
2022-12-09T16:35:32.081Z,99841.78
2022-12-09T16:38:19.991Z,99810.91
2022-12-09T16:41:12.364Z,99827.97
2022-12-09T16:43:59.902Z,99827.59
2022-12-09T16:46:47.881Z,99821.59
2022-12-09T16:49:35.540Z,99806.59
2022-12-09T16:52:25.896Z,99805.66
2022-12-09T16:55:25.541Z,99826.66
2022-12-09T16:58:15.036Z,99776.03
2022-12-09T17:01:05.191Z,99819.88
2022-12-09T17:03:58.479Z,99827.31
2022-12-09T17:06:46.392Z,99827.44
2022-12-09T17:09:37.143Z,99818.38
2022-12-09T17:12:24.788Z,99830.19
2022-12-09T17:15:19.502Z,99833.88
2022-12-09T17:18:07.917Z,99820.09
2022-12-09T17:21:08.985Z,99827.91
2022-12-09T17:23:57.680Z,99837.81
2022-12-09T17:26:45.353Z,99840.66
2022-12-09T17:29:33.063Z,99841.97
2022-12-09T17:32:20.849Z,99799.16
2022-12-09T17:35:12.915Z,99812.66
2022-12-09T17:38:03.523Z,99804.56
2022-12-09T17:40:51.631Z,99791.25
2022-12-09T17:43:39.472Z,99794.69
2022-12-09T17:46:27.622Z,99820.75
2022-12-09T17:49:18.495Z,99793.75
2022-12-09T17:52:06.441Z,99752.34
2022-12-09T17:54:54.040Z,99798.28
2022-12-09T17:57:41.638Z,99788.78
2022-12-09T18:00:29.318Z,99805.31
2022-12-09T18:03:27.361Z,99804.69
2022-12-09T18:06:25.942Z,99805.50
2022-12-09T18:09:18.685Z,99814.50
2022-12-09T18:12:09.422Z,99831.88
2022-12-09T18:15:00.047Z,99799.53
2022-12-09T18:17:53.633Z,99818.38
2022-12-09T18:20:44.147Z,99781.78
2022-12-09T18:23:35.539Z,99811.94
2022-12-09T18:26:30.207Z,99802.03
2022-12-09T18:29:20.117Z,99797.03
2022-12-09T18:32:08.482Z,99793.13
2022-12-09T18:34:56.180Z,99800.22
2022-12-09T18:37:43.852Z,99789.31
2022-12-09T18:40:31.659Z,99791.00
2022-12-09T18:43:19.260Z,99782.16
2022-12-09T18:46:25.018Z,99791.25
2022-12-09T18:49:21.990Z,99760.34
2022-12-09T18:52:09.708Z,99763.38
2022-12-09T18:54:57.309Z,99754.81
2022-12-09T18:57:45.084Z,99760.31
2022-12-09T19:00:32.799Z,99756.63
2022-12-09T19:03:20.453Z,99757.16
2022-12-09T19:06:23.092Z,99760.91
2022-12-09T19:09:15.346Z,99764.22
2022-12-09T19:12:45.247Z,99764.13
2022-12-09T19:15:17.302Z,99741.03
2022-12-09T19:18:04.871Z,99728.28
2022-12-09T19:20:55.767Z,99710.78
2022-12-09T19:23:45.489Z,99712.63
2022-12-09T19:26:35.463Z,99734.06
2022-12-09T19:29:24.885Z,99756.88
2022-12-09T19:32:36.501Z,99736.78
2022-12-09T19:35:20.152Z,99731.47
2022-12-09T19:38:07.891Z,99751.88
2022-12-09T19:41:00.260Z,99745.59
2022-12-09T19:43:48.045Z,99746.41
2022-12-09T19:46:35.883Z,99738.59
2022-12-09T19:49:24.159Z,99718.13
2022-12-09T19:52:12.539Z,99713.66
2022-12-09T19:55:00.622Z,99731.81
2022-12-09T19:57:48.300Z,99727.78
2022-12-09T20:00:41.419Z,99730.03
2022-12-09T20:03:29.389Z,99716.41
2022-12-09T20:06:20.418Z,99718.19
2022-12-09T20:09:10.392Z,99726.91
2022-12-09T20:12:00.213Z,99722.75
2022-12-09T20:14:50.462Z,99720.13
2022-12-09T20:17:39.118Z,99715.34
2022-12-09T20:20:34.462Z,99715.22
2022-12-09T20:23:22.126Z,99726.06
2022-12-09T20:26:27.606Z,99696.63
2022-12-09T20:29:15.346Z,99720.03
2022-12-09T20:32:03.130Z,99631.91
2022-12-09T20:34:51.602Z,99720.28
2022-12-09T20:37:39.597Z,99707.13
2022-12-09T20:40:27.283Z,99690.22
2022-12-09T20:43:15.075Z,99719.06
2022-12-09T20:46:05.487Z,99702.09
2022-12-09T20:48:53.928Z,99728.50
2022-12-09T20:51:42.021Z,99719.34
2022-12-09T20:54:29.774Z,99705.47
2022-12-09T20:57:17.907Z,99696.19
2022-12-09T21:00:06.245Z,99714.88
2022-12-09T21:02:54.163Z,99715.41
2022-12-09T21:05:42.037Z,99712.59
2022-12-09T21:08:31.981Z,99722.75
2022-12-09T21:11:23.397Z,99733.31
2022-12-09T21:14:12.211Z,99747.63
2022-12-09T21:16:59.831Z,99735.38
2022-12-09T21:19:47.771Z,99722.81
2022-12-09T21:22:35.632Z,99707.59
2022-12-09T21:25:23.404Z,99723.63
2022-12-09T21:28:11.211Z,99709.94
2022-12-09T21:30:58.853Z,99702.50
2022-12-09T21:33:48.395Z,99678.59
2022-12-09T21:36:39.610Z,99713.13
2022-12-09T21:39:28.225Z,99696.03
2022-12-09T21:42:16.048Z,99708.78
2022-12-09T21:45:04.771Z,99711.06
2022-12-09T21:47:52.466Z,99723.56
2022-12-09T21:50:40.104Z,99706.19
2022-12-09T21:53:28.696Z,99706.47
2022-12-09T21:56:21.830Z,99695.03
2022-12-09T21:59:10.734Z,99717.28
2022-12-09T22:14:28.350Z,99720.84
2022-12-09T22:17:15.940Z,99720.34
2022-12-09T22:20:49.060Z,99701.16
2022-12-09T22:23:13.724Z,99697.16
2022-12-09T22:26:05.850Z,99701.09
2022-12-09T22:28:54.077Z,99650.59
2022-12-09T22:31:45.279Z,99668.50
2022-12-09T22:34:33.125Z,99679.06
2022-12-09T22:37:43.009Z,99626.63
2022-12-09T22:40:28.357Z,99663.88
2022-12-09T22:43:16.032Z,99634.72
2022-12-09T22:46:09.276Z,99618.94
2022-12-09T22:49:00.064Z,99644.34
2022-12-09T22:51:48.130Z,99646.19
2022-12-09T22:54:35.802Z,99645.13
2022-12-09T22:57:23.383Z,99641.38
2022-12-09T23:00:11.911Z,99621.56
2022-12-09T23:02:59.623Z,99641.91
2022-12-09T23:05:47.698Z,99649.59
2022-12-09T23:08:36.655Z,99618.47
2022-12-09T23:11:27.749Z,99620.06
2022-12-09T23:14:16.282Z,99621.69
2022-12-09T23:17:03.934Z,99604.03
2022-12-09T23:19:51.589Z,99516.19
2022-12-09T23:22:39.239Z,99572.78
2022-12-09T23:25:26.861Z,99597.63
2022-12-09T23:28:14.497Z,99592.81
2022-12-09T23:31:03.132Z,99564.94
2022-12-09T23:33:52.516Z,99591.56
2022-12-09T23:36:42.377Z,99600.66
2022-12-09T23:39:30.042Z,99585.78
2022-12-09T23:42:19.768Z,99596.81
2022-12-09T23:45:08.006Z,99596.81
2022-12-09T23:47:56.694Z,99592.53
2022-12-09T23:50:44.387Z,99570.25
2022-12-09T23:53:31.991Z,99565.09
2022-12-09T23:56:22.044Z,99547.16
2022-12-09T23:59:12.473Z,99567.19
